createdAt,value
2022-08-21T00:00:54.775Z,10.27
2022-08-21T00:03:23.439Z,7.33
2022-08-21T00:05:53.661Z,11.50
2022-08-21T00:08:22.840Z,5.00
2022-08-21T00:10:52.130Z,4.10
2022-08-21T00:13:22.062Z,13.67
2022-08-21T00:15:52.749Z,13.73
2022-08-21T00:18:21.613Z,7.30
2022-08-21T00:20:50.658Z,4.43
2022-08-21T00:23:19.384Z,6.47
2022-08-21T00:25:48.028Z,9.77
2022-08-21T00:28:16.471Z,6.53
2022-08-21T00:30:45.831Z,10.00
2022-08-21T00:33:15.799Z,10.33
2022-08-21T00:35:45.869Z,8.30
2022-08-21T00:38:14.308Z,7.57
2022-08-21T00:40:46.965Z,8.90
2022-08-21T00:43:18.869Z,12.63
2022-08-21T00:45:47.501Z,7.47
2022-08-21T00:48:17.653Z,5.93
2022-08-21T00:50:52.689Z,7.03
2022-08-21T00:53:21.383Z,6.17
2022-08-21T00:55:49.838Z,11.10
2022-08-21T00:58:18.875Z,7.77
2022-08-21T01:00:52.005Z,4.30
2022-08-21T01:03:25.748Z,10.97
2022-08-21T01:05:55.119Z,15.20
2022-08-21T01:08:24.309Z,9.73
2022-08-21T01:10:55.252Z,8.37
2022-08-21T01:13:25.636Z,5.70
2022-08-21T01:15:57.812Z,6.53
2022-08-21T01:18:28.675Z,13.47
2022-08-21T01:21:10.525Z,11.87
2022-08-21T01:23:44.381Z,4.67
2022-08-21T01:26:15.054Z,6.63
2022-08-21T01:28:46.142Z,11.07
2022-08-21T01:31:17.338Z,16.87
2022-08-21T01:33:54.539Z,10.27
2022-08-21T01:36:25.595Z,5.53
2022-08-21T01:38:53.956Z,6.80
2022-08-21T01:41:22.131Z,12.07
2022-08-21T01:43:50.803Z,17.43
2022-08-21T01:46:19.435Z,11.07
2022-08-21T01:48:47.938Z,10.27
2022-08-21T01:51:16.663Z,7.23
2022-08-21T01:53:46.250Z,6.43
2022-08-21T01:56:16.577Z,13.20
2022-08-21T01:58:47.086Z,17.87
2022-08-21T02:01:16.158Z,11.40
2022-08-21T02:03:44.723Z,7.03
2022-08-21T02:06:16.522Z,16.40
2022-08-21T02:08:51.501Z,8.83
2022-08-21T02:11:20.446Z,13.70
2022-08-21T02:13:48.999Z,10.77
2022-08-21T02:16:19.409Z,12.17
2022-08-21T02:18:48.337Z,12.40
2022-08-21T02:21:17.104Z,6.20
2022-08-21T02:23:47.413Z,8.50
2022-08-21T02:26:16.131Z,10.33
2022-08-21T02:28:44.549Z,9.97
2022-08-21T02:31:13.707Z,17.23
2022-08-21T02:33:42.709Z,7.00
2022-08-21T02:36:12.039Z,14.43
2022-08-21T02:38:42.379Z,14.00
2022-08-21T02:41:14.899Z,12.77
2022-08-21T02:43:46.074Z,14.47
2022-08-21T02:46:16.322Z,11.13
2022-08-21T02:48:45.573Z,10.80
2022-08-21T02:51:18.401Z,13.90
2022-08-21T02:53:47.502Z,9.43
2022-08-21T02:56:19.642Z,9.43
2022-08-21T02:58:50.258Z,15.03
2022-08-21T03:01:19.082Z,11.00
2022-08-21T03:03:51.217Z,14.93
2022-08-21T03:06:21.692Z,10.60
2022-08-21T03:08:50.097Z,12.00
2022-08-21T03:11:20.316Z,13.97
2022-08-21T03:13:48.605Z,13.60
2022-08-21T03:16:17.186Z,6.57
2022-08-21T03:18:45.708Z,5.87
2022-08-21T03:21:14.180Z,10.93
2022-08-21T03:23:44.191Z,10.07
2022-08-21T03:26:12.650Z,14.00
2022-08-21T03:28:42.460Z,7.93
2022-08-21T03:31:10.786Z,11.40
2022-08-21T03:33:39.161Z,17.53
2022-08-21T03:36:09.490Z,12.90
2022-08-21T03:38:39.633Z,8.10
2022-08-21T03:41:09.457Z,10.77
2022-08-21T03:43:37.878Z,8.37
2022-08-21T03:46:08.326Z,11.60
2022-08-21T03:48:38.745Z,11.10
2022-08-21T03:51:07.578Z,13.27
2022-08-21T03:53:36.101Z,10.33
2022-08-21T03:56:05.082Z,9.83
2022-08-21T03:58:33.795Z,4.43
2022-08-21T04:01:03.142Z,7.23
2022-08-21T04:03:33.083Z,12.27
2022-08-21T04:06:01.577Z,9.67
2022-08-21T04:08:29.809Z,12.00
2022-08-21T04:11:00.387Z,8.97
2022-08-21T04:13:29.224Z,9.23
2022-08-21T04:15:59.083Z,10.83
2022-08-21T04:18:27.467Z,7.70
2022-08-21T04:20:59.682Z,7.73
2022-08-21T04:23:28.811Z,14.40
2022-08-21T04:25:58.595Z,15.17
2022-08-21T04:28:29.155Z,11.73
2022-08-21T04:30:58.997Z,12.43
2022-08-21T04:33:27.515Z,12.37
2022-08-21T04:35:57.124Z,13.03
2022-08-21T04:38:25.966Z,10.60
2022-08-21T04:41:01.482Z,9.33
2022-08-21T04:43:30.144Z,14.40
2022-08-21T04:45:58.450Z,11.33
2022-08-21T04:48:26.696Z,9.97
2022-08-21T04:51:03.026Z,20.23
2022-08-21T04:53:36.910Z,12.43
2022-08-21T04:56:09.387Z,13.27
2022-08-21T04:58:40.426Z,10.73
2022-08-21T05:01:15.515Z,10.00
2022-08-21T05:03:44.436Z,19.73
2022-08-21T05:06:16.635Z,11.33
2022-08-21T05:08:47.818Z,7.17
2022-08-21T05:11:16.258Z,8.50
2022-08-21T05:13:44.664Z,11.70
2022-08-21T05:16:13.098Z,7.97
2022-08-21T05:18:41.605Z,16.50
2022-08-21T05:21:10.725Z,19.95
2022-08-21T05:23:40.297Z,12.50
2022-08-21T05:26:08.647Z,23.10
2022-08-21T05:28:46.842Z,12.83
2022-08-21T05:31:15.509Z,13.40
2022-08-21T05:33:43.988Z,10.83
2022-08-21T05:36:12.396Z,10.10
2022-08-21T05:38:42.415Z,10.50
2022-08-21T05:41:10.851Z,16.47
2022-08-21T05:43:39.470Z,18.33
2022-08-21T05:46:09.091Z,13.50
2022-08-21T05:48:38.381Z,14.23
2022-08-21T05:51:08.980Z,11.30
2022-08-21T05:53:38.374Z,11.93
2022-08-21T05:56:08.537Z,15.53
2022-08-21T05:58:37.937Z,9.30
2022-08-21T06:01:07.631Z,12.43
2022-08-21T06:03:38.967Z,12.43
2022-08-21T06:06:07.411Z,14.50
2022-08-21T06:08:36.636Z,10.90
2022-08-21T06:11:05.969Z,14.10
2022-08-21T06:13:36.911Z,14.43
2022-08-21T06:16:10.833Z,18.20
2022-08-21T06:18:40.226Z,14.90
2022-08-21T06:21:09.834Z,20.87
2022-08-21T06:23:38.449Z,20.13
2022-08-21T06:26:08.424Z,16.40
2022-08-21T06:28:38.892Z,16.07
2022-08-21T06:31:17.271Z,10.83
2022-08-21T06:33:45.781Z,11.17
2022-08-21T06:36:14.554Z,20.53
2022-08-21T06:38:50.782Z,14.23
2022-08-21T06:41:23.949Z,14.80
2022-08-21T06:43:58.185Z,11.80
2022-08-21T06:46:27.776Z,18.67
2022-08-21T06:48:57.191Z,8.57
2022-08-21T06:51:26.809Z,12.20
2022-08-21T06:53:55.522Z,14.50
2022-08-21T06:56:24.113Z,16.43
2022-08-21T06:58:53.319Z,12.80
2022-08-21T07:01:27.440Z,14.37
2022-08-21T07:03:56.136Z,11.37
2022-08-21T07:06:24.352Z,18.33
2022-08-21T07:08:52.959Z,11.43
2022-08-21T07:11:25.471Z,8.87
2022-08-21T07:13:55.428Z,15.63
2022-08-21T07:16:25.472Z,10.50
2022-08-21T07:18:53.909Z,15.83
2022-08-21T07:21:25.797Z,10.50
2022-08-21T07:23:54.993Z,17.27
2022-08-21T07:26:27.010Z,9.33
2022-08-21T07:28:56.298Z,12.23
2022-08-21T07:31:27.164Z,14.27
2022-08-21T07:33:55.730Z,12.40
2022-08-21T07:36:24.737Z,14.03
2022-08-21T07:38:53.369Z,11.23
2022-08-21T07:41:24.642Z,7.43
2022-08-21T07:43:53.591Z,24.03
2022-08-21T07:46:22.372Z,10.40
2022-08-21T07:48:52.040Z,11.73
2022-08-21T07:51:26.282Z,9.13
2022-08-21T07:53:56.730Z,10.83
2022-08-21T07:56:25.135Z,9.60
2022-08-21T07:58:53.465Z,14.53
2022-08-21T08:01:22.024Z,10.27
2022-08-21T08:03:52.315Z,9.70
2022-08-21T08:06:20.685Z,15.03
2022-08-21T08:08:49.359Z,10.37
2022-08-21T08:11:18.754Z,12.37
2022-08-21T08:13:49.319Z,9.57
2022-08-21T08:16:18.462Z,9.10
2022-08-21T08:18:47.263Z,12.40
2022-08-21T08:21:17.662Z,9.77
2022-08-21T08:23:46.286Z,9.53
2022-08-21T08:26:16.598Z,9.50
2022-08-21T08:28:45.282Z,8.23
2022-08-21T08:31:13.599Z,8.10
2022-08-21T08:33:42.429Z,9.87
2022-08-21T08:36:18.479Z,16.80
2022-08-21T08:38:49.322Z,13.00
2022-08-21T08:41:20.050Z,12.30
2022-08-21T08:43:53.983Z,11.60
2022-08-21T08:46:31.794Z,12.83
2022-08-21T08:49:08.622Z,9.97
2022-08-21T08:51:53.314Z,7.70
2022-08-21T08:54:32.430Z,14.43
2022-08-21T08:57:02.612Z,11.67
2022-08-21T08:59:38.624Z,8.02
2022-08-21T09:02:08.161Z,7.03
2022-08-21T09:04:36.814Z,7.87
2022-08-21T09:07:18.286Z,7.80
2022-08-21T09:10:03.581Z,19.67
2022-08-21T09:12:41.718Z,8.73
2022-08-21T09:15:19.793Z,8.57
2022-08-21T09:18:13.338Z,13.60
2022-08-21T09:21:10.739Z,10.13
2022-08-21T09:23:49.038Z,12.30
2022-08-21T09:26:20.970Z,12.37
2022-08-21T09:28:55.482Z,10.33
2022-08-21T09:31:27.356Z,12.00
2022-08-21T09:34:01.102Z,14.27
2022-08-21T09:36:38.707Z,8.07
2022-08-21T09:39:09.982Z,7.47
2022-08-21T09:41:39.181Z,9.43
2022-08-21T09:44:09.264Z,9.87
2022-08-21T09:46:38.164Z,13.60
2022-08-21T09:49:14.849Z,8.57
2022-08-21T09:51:53.766Z,6.97
2022-08-21T09:54:31.076Z,9.80
2022-08-21T09:57:19.392Z,10.93
2022-08-21T09:59:49.690Z,9.20
2022-08-21T10:02:27.502Z,11.50
2022-08-21T10:04:57.899Z,23.37
2022-08-21T10:07:30.944Z,5.43
2022-08-21T10:10:08.614Z,7.00
2022-08-21T10:12:47.375Z,11.30
2022-08-21T10:15:22.455Z,6.50
2022-08-21T10:17:58.619Z,9.50
2022-08-21T10:20:37.709Z,7.77
2022-08-21T10:23:20.709Z,7.00
2022-08-21T10:26:13.334Z,5.70
2022-08-21T10:28:52.709Z,5.73
2022-08-21T10:31:30.720Z,5.00
2022-08-21T10:34:14.690Z,7.53
2022-08-21T10:36:54.637Z,9.57
2022-08-21T10:39:35.945Z,10.17
2022-08-21T10:42:28.495Z,8.03
2022-08-21T10:45:16.249Z,6.43
2022-08-21T10:47:52.891Z,6.03
2022-08-21T10:50:33.535Z,7.47
2022-08-21T10:53:31.910Z,7.33
2022-08-21T10:56:07.055Z,6.93
2022-08-21T10:58:44.918Z,5.63
2022-08-21T11:01:17.622Z,9.00
2022-08-21T11:03:50.202Z,5.80
2022-08-21T11:06:24.132Z,4.67
2022-08-21T11:08:57.748Z,5.73
2022-08-21T11:11:35.986Z,11.33
2022-08-21T11:14:20.051Z,5.05
2022-08-21T11:16:55.546Z,5.88
2022-08-21T11:19:29.946Z,6.57
2022-08-21T11:22:09.100Z,8.47
2022-08-21T11:24:45.589Z,10.63
2022-08-21T11:27:22.230Z,7.40
2022-08-21T11:29:55.318Z,7.73
2022-08-21T11:32:46.738Z,9.23
2022-08-21T11:35:22.613Z,3.58
2022-08-21T11:38:03.249Z,7.45
2022-08-21T11:40:42.160Z,4.45
2022-08-21T11:43:15.022Z,3.88
2022-08-21T11:45:49.673Z,6.22
2022-08-21T11:48:32.172Z,3.47
2022-08-21T11:51:03.025Z,3.08
2022-08-21T11:53:35.743Z,3.80
2022-08-21T11:56:10.910Z,5.15
2022-08-21T11:58:43.013Z,3.45
2022-08-21T12:01:17.014Z,2.75
2022-08-21T12:03:54.718Z,3.58
2022-08-21T12:06:32.207Z,4.78
2022-08-21T12:09:03.587Z,4.00
2022-08-21T12:11:32.110Z,4.32
2022-08-21T12:14:13.835Z,4.53
2022-08-21T12:16:45.701Z,2.70
2022-08-21T12:19:16.922Z,2.45
2022-08-21T12:21:53.752Z,4.07
2022-08-21T12:24:35.761Z,3.28
2022-08-21T12:27:22.454Z,4.18
2022-08-21T12:29:53.001Z,5.97
2022-08-21T12:32:30.855Z,3.97
2022-08-21T12:35:08.389Z,9.70
2022-08-21T12:37:47.175Z,2.08
2022-08-21T12:40:23.136Z,2.63
2022-08-21T12:42:58.961Z,7.13
2022-08-21T12:45:32.631Z,3.05
2022-08-21T12:48:08.369Z,4.40
2022-08-21T12:50:42.592Z,2.83
2022-08-21T12:53:24.524Z,4.13
2022-08-21T12:55:53.090Z,3.00
2022-08-21T12:58:22.338Z,4.03
2022-08-21T13:00:53.862Z,3.63
2022-08-21T13:03:24.969Z,7.03
2022-08-21T13:05:55.425Z,3.00
2022-08-21T13:08:26.837Z,3.90
2022-08-21T13:11:13.627Z,7.07
2022-08-21T13:13:50.160Z,3.90
2022-08-21T13:16:24.470Z,3.05
2022-08-21T13:19:01.531Z,3.53
2022-08-21T13:21:32.411Z,9.85
2022-08-21T13:24:40.745Z,2.38
2022-08-21T13:27:04.735Z,5.85
2022-08-21T13:29:35.874Z,3.60
2022-08-21T13:32:09.118Z,4.70
2022-08-21T13:34:39.930Z,4.38
2022-08-21T13:37:10.016Z,4.78
2022-08-21T13:39:39.687Z,3.30
2022-08-21T13:42:14.360Z,2.28
2022-08-21T13:44:46.226Z,3.30
2022-08-21T13:47:17.022Z,6.97
2022-08-21T13:49:49.529Z,4.32
2022-08-21T13:52:20.406Z,7.13
2022-08-21T13:54:57.452Z,2.95
2022-08-21T13:57:31.862Z,4.15
2022-08-21T14:00:15.371Z,6.10
2022-08-21T14:02:47.346Z,2.42
2022-08-21T14:05:27.203Z,2.78
2022-08-21T14:08:04.400Z,6.57
2022-08-21T14:10:33.521Z,4.03
2022-08-21T14:13:05.507Z,5.75
2022-08-21T14:15:36.831Z,3.17
2022-08-21T14:18:17.701Z,2.97
2022-08-21T14:20:48.033Z,2.60
2022-08-21T14:23:26.468Z,5.40
2022-08-21T14:25:55.233Z,3.95
2022-08-21T14:28:28.764Z,3.92
2022-08-21T14:30:58.363Z,3.58
2022-08-21T14:33:29.390Z,5.40
2022-08-21T14:35:59.919Z,3.83
2022-08-21T14:38:30.433Z,4.82
2022-08-21T14:41:07.074Z,2.55
2022-08-21T14:43:35.373Z,2.97
2022-08-21T14:46:03.734Z,2.03
2022-08-21T14:48:32.261Z,2.03
2022-08-21T14:51:02.155Z,4.78
2022-08-21T14:53:30.373Z,5.50
2022-08-21T14:56:08.028Z,1.48
2022-08-21T14:58:39.285Z,3.03
2022-08-21T15:01:09.847Z,1.38
2022-08-21T15:03:39.331Z,2.83
2022-08-21T15:06:10.385Z,1.13
2022-08-21T15:08:39.300Z,2.55
2022-08-21T15:11:12.118Z,5.85
2022-08-21T15:13:42.473Z,2.47
2022-08-21T15:16:12.769Z,3.85
2022-08-21T15:18:41.147Z,1.98
2022-08-21T15:21:11.576Z,3.38
2022-08-21T15:23:43.727Z,2.33
2022-08-21T15:26:12.513Z,3.47
2022-08-21T15:28:41.233Z,1.17
2022-08-21T15:31:09.594Z,3.67
2022-08-21T15:33:38.142Z,6.50
2022-08-21T15:36:06.621Z,4.03
2022-08-21T15:38:36.312Z,2.40
2022-08-21T15:41:05.452Z,3.85
2022-08-21T15:43:44.560Z,2.22
2022-08-21T15:46:15.486Z,1.70
2022-08-21T15:48:44.431Z,8.45
2022-08-21T15:51:13.078Z,2.95
2022-08-21T15:53:43.519Z,3.85
2022-08-21T15:56:19.965Z,2.63
2022-08-21T15:58:48.921Z,4.65
2022-08-21T16:01:17.348Z,2.90
2022-08-21T16:03:50.667Z,3.67
2022-08-21T16:06:19.208Z,5.43
2022-08-21T16:09:08.646Z,5.55
2022-08-21T16:11:36.985Z,4.68
2022-08-21T16:14:06.039Z,4.45
2022-08-21T16:16:36.833Z,3.65
2022-08-21T16:19:07.029Z,1.75
2022-08-21T16:21:35.509Z,4.80
2022-08-21T16:24:04.173Z,3.67
2022-08-21T16:26:34.665Z,5.53
2022-08-21T16:29:04.163Z,2.63
2022-08-21T16:31:33.865Z,4.80
2022-08-21T16:34:02.683Z,4.63
2022-08-21T16:36:32.092Z,8.38
2022-08-21T16:39:02.433Z,6.00
2022-08-21T16:41:36.101Z,4.50
2022-08-21T16:44:05.990Z,5.63
2022-08-21T16:46:36.942Z,4.15
2022-08-21T16:49:05.876Z,2.55
2022-08-21T16:51:34.492Z,3.33
2022-08-21T16:54:03.124Z,2.20
2022-08-21T16:56:31.770Z,1.70
2022-08-21T16:59:01.497Z,4.93
2022-08-21T17:01:32.561Z,2.30
2022-08-21T17:04:01.579Z,1.48
2022-08-21T17:06:31.447Z,4.60
2022-08-21T17:08:59.781Z,3.70
2022-08-21T17:11:37.197Z,2.65
2022-08-21T17:14:10.742Z,5.20
2022-08-21T17:16:39.626Z,2.92
2022-08-21T17:19:08.358Z,2.33
2022-08-21T17:21:37.110Z,3.97
2022-08-21T17:24:06.154Z,1.92
2022-08-21T17:26:34.955Z,12.30
2022-08-21T17:29:03.834Z,3.25
2022-08-21T17:31:33.818Z,3.10
2022-08-21T17:34:02.647Z,3.45
2022-08-21T17:36:32.026Z,5.45
2022-08-21T17:39:00.561Z,5.57
2022-08-21T17:41:28.979Z,2.73
2022-08-21T17:43:57.558Z,6.28
2022-08-21T17:46:29.637Z,4.93
2022-08-21T17:49:00.137Z,4.43
2022-08-21T17:51:29.867Z,1.73
2022-08-21T17:53:58.351Z,4.27
2022-08-21T17:56:31.199Z,2.17
2022-08-21T17:58:59.818Z,1.03
2022-08-21T18:01:30.380Z,1.83
2022-08-21T18:04:00.410Z,4.20
2022-08-21T18:06:29.145Z,4.00
2022-08-21T18:08:58.001Z,3.10
2022-08-21T18:11:29.074Z,5.60
2022-08-21T18:14:06.570Z,5.67
2022-08-21T18:16:37.987Z,7.27
2022-08-21T18:19:10.634Z,5.03
2022-08-21T18:21:39.557Z,5.53
2022-08-21T18:24:07.924Z,1.10
2022-08-21T18:26:38.958Z,3.70
2022-08-21T18:29:09.917Z,4.03
2022-08-21T18:31:40.182Z,5.17
2022-08-21T18:34:20.106Z,3.77
2022-08-21T18:36:49.320Z,3.57
2022-08-21T18:39:35.897Z,3.53
2022-08-21T18:42:10.189Z,4.47
2022-08-21T18:44:39.954Z,2.67
2022-08-21T18:47:12.284Z,7.83
2022-08-21T18:49:43.076Z,2.20
2022-08-21T18:52:17.636Z,6.10
2022-08-21T18:55:05.965Z,7.73
2022-08-21T18:57:42.257Z,4.37
2022-08-21T19:00:18.054Z,5.33
2022-08-21T19:02:47.268Z,7.27
2022-08-21T19:05:19.681Z,5.27
2022-08-21T19:07:48.774Z,3.73
2022-08-21T19:10:28.643Z,4.37
2022-08-21T19:12:59.491Z,2.63
2022-08-21T19:15:28.822Z,6.23
2022-08-21T19:17:59.166Z,5.73
2022-08-21T19:20:31.382Z,3.60
2022-08-21T19:22:59.806Z,7.27
2022-08-21T19:28:24.815Z,6.10
2022-08-21T19:30:58.270Z,6.33
2022-08-21T19:33:33.570Z,3.87
2022-08-21T19:36:04.603Z,3.10
2022-08-21T19:38:33.131Z,6.17
2022-08-21T19:41:02.604Z,3.83
2022-08-21T19:43:33.654Z,3.73
2022-08-21T19:46:02.123Z,5.53
2022-08-21T19:48:31.559Z,5.20
2022-08-21T19:50:59.866Z,6.20
2022-08-21T19:53:29.525Z,4.63
2022-08-21T19:55:58.418Z,6.90
2022-08-21T19:58:37.309Z,3.70
2022-08-21T20:01:11.536Z,4.17
2022-08-21T20:06:35.866Z,6.00
2022-08-21T20:09:08.410Z,3.53
2022-08-21T20:11:39.613Z,10.10
2022-08-21T20:14:10.701Z,5.80
2022-08-21T20:16:39.253Z,8.37
2022-08-21T20:19:10.778Z,5.17
2022-08-21T20:21:43.701Z,8.93
2022-08-21T20:24:15.657Z,6.97
2022-08-21T20:26:49.293Z,4.67
2022-08-21T20:29:24.550Z,6.40
2022-08-21T20:31:57.217Z,8.60
2022-08-21T20:34:26.302Z,5.97
2022-08-21T20:36:54.905Z,9.77
2022-08-21T20:39:24.945Z,7.50
2022-08-21T20:41:55.041Z,6.53
2022-08-21T20:44:27.457Z,15.83
2022-08-21T20:46:56.261Z,6.50
2022-08-21T20:49:31.149Z,6.23
2022-08-21T20:52:01.240Z,8.30
2022-08-21T20:54:36.887Z,6.93
2022-08-21T20:57:13.675Z,6.80
2022-08-21T20:59:49.988Z,7.87
2022-08-21T21:02:35.693Z,4.20
2022-08-21T21:05:13.771Z,6.10
2022-08-21T21:07:52.374Z,5.20
2022-08-21T21:10:30.059Z,5.07
2022-08-21T21:13:04.269Z,2.77
2022-08-21T21:15:35.615Z,5.93
2022-08-21T21:18:13.069Z,5.23
2022-08-21T21:20:48.284Z,10.03
2022-08-21T21:23:22.721Z,12.13
2022-08-21T21:26:02.026Z,9.50
2022-08-21T21:28:43.040Z,5.53
2022-08-21T21:34:00.149Z,8.80
2022-08-21T21:36:35.385Z,6.10
2022-08-21T21:39:19.082Z,8.13
2022-08-21T21:41:57.949Z,8.10
2022-08-21T21:44:49.363Z,6.63
2022-08-21T21:47:25.221Z,6.27
2022-08-21T21:50:18.967Z,7.53
2022-08-21T21:52:58.385Z,11.53
2022-08-21T21:55:42.632Z,8.50
2022-08-21T21:58:38.575Z,6.17
2022-08-21T22:01:17.398Z,16.03
2022-08-21T22:03:55.439Z,5.07
2022-08-21T22:06:31.866Z,6.80
2022-08-21T22:12:04.379Z,3.63
2022-08-21T22:14:39.759Z,5.43
2022-08-21T22:17:19.419Z,11.83
2022-08-21T22:19:52.356Z,5.50
2022-08-21T22:22:24.723Z,6.77
2022-08-21T22:24:59.275Z,7.20
2022-08-21T22:27:32.077Z,8.87
2022-08-21T22:30:04.700Z,14.80
2022-08-21T22:32:39.697Z,7.17
2022-08-21T22:35:17.650Z,9.27
2022-08-21T22:37:49.400Z,7.30
2022-08-21T22:40:26.387Z,7.90
2022-08-21T22:43:03.210Z,7.00
2022-08-21T22:45:58.877Z,6.50
2022-08-21T22:48:30.961Z,5.70
2022-08-21T22:51:03.694Z,5.80
2022-08-21T22:53:36.770Z,5.30
2022-08-21T22:56:07.606Z,6.33
2022-08-21T22:58:40.930Z,5.53
2022-08-21T23:01:33.428Z,6.80
2022-08-21T23:04:15.188Z,7.20
2022-08-21T23:06:49.399Z,7.20
2022-08-21T23:09:34.108Z,7.93
2022-08-21T23:12:14.113Z,5.30
2022-08-21T23:14:54.803Z,8.53
2022-08-21T23:17:47.925Z,4.13
2022-08-21T23:20:24.709Z,7.87
2022-08-21T23:23:05.562Z,5.40
2022-08-21T23:25:58.596Z,7.57
2022-08-21T23:28:40.604Z,4.10
2022-08-21T23:31:19.878Z,8.17
2022-08-21T23:34:05.947Z,5.80
2022-08-21T23:37:02.552Z,9.50
2022-08-21T23:39:45.463Z,7.23
2022-08-21T23:42:31.827Z,9.40
2022-08-21T23:45:14.016Z,6.43
2022-08-21T23:47:51.261Z,5.40
2022-08-21T23:50:26.644Z,7.27
2022-08-21T23:53:13.001Z,5.63
2022-08-21T23:55:56.011Z,4.93
2022-08-21T23:58:35.515Z,7.40
